Terminal Aerodrome Forecast
Issued by NWS Melbourne, FL

Home | Current Version | Previous Version | Text Only | Print | Product List | Glossary On
Versions: 1 2 3 4 5 6 7 8 9 10 11 12 13 14 15
000
FTUS42 KMLB 291800 AAA
TAFDAB
TAF AMD
KDAB 291800Z 2918/3018 05012KT P6SM VCSH SCT045 SCT060 BKN250
     FM300200 00000KT P6SM FEW025 SCT250
     FM301300 27008KT P6SM SCT020=

USA.gov is the U.S. government's official web portal to all federal, state and local government web resources and services.